Time;durP1;ratioP1;P1;durP2;ratioP2;P2;SDS_P1;SDS_P2;PMS_P1;PMS_P2;Temp;Humidity;BMP_temperature;BMP_pressure;BME280_temperature;BME280_humidity;BME280_pressure;Samples;Min_cycle;Max_cycle;Signal;HPM_P1;HPM_P2
2023/06/08 00:01:02;;;;;;;41.70;11.60;;;;;;;;;;5010797;28;20060;-70
2023/06/08 00:03:29;;;;;;;36.20;11.68;;;;;;;;;;5009405;28;20022;-71
2023/06/08 00:05:57;;;;;;;36.28;12.15;;;;;;;;;;5012877;28;20033;-71
2023/06/08 00:08:23;;;;;;;39.67;13.10;;;;;;;;;;5013255;28;20037;-71
2023/06/08 00:10:49;;;;;;;33.03;12.40;;;;;;;;;;5012889;28;20037;-72
2023/06/08 00:13:16;;;;;;;39.63;12.45;;;;;;;;;;5012958;28;20032;-72
2023/06/08 00:15:42;;;;;;;32.80;12.52;;;;;;;;;;5013181;28;20693;-72
2023/06/08 00:18:08;;;;;;;42.80;12.98;;;;;;;;;;5013077;28;20033;-72
2023/06/08 00:20:34;;;;;;;33.40;12.75;;;;;;;;;;5012942;28;20072;-71
2023/06/08 00:23:03;;;;;;;37.72;15.00;;;;;;;;;;5012293;28;20022;-71
2023/06/08 00:25:29;;;;;;;43.53;13.80;;;;;;;;;;5013017;28;20026;-72
2023/06/08 00:27:55;;;;;;;30.23;12.32;;;;;;;;;;5012896;28;20026;-72
2023/06/08 00:30:21;;;;;;;32.53;13.27;;;;;;;;;;5028107;28;20368;-72
2023/06/08 00:32:47;;;;;;;35.03;12.75;;;;;;;;;;5012659;28;20101;-72
2023/06/08 00:35:13;;;;;;;33.95;12.90;;;;;;;;;;5012769;28;20022;-71
2023/06/08 00:37:40;;;;;;;38.65;13.15;;;;;;;;;;5012706;28;20038;-71
2023/06/08 00:40:06;;;;;;;35.70;13.77;;;;;;;;;;5012920;28;20026;-71
2023/06/08 00:42:33;;;;;;;31.98;12.90;;;;;;;;;;5012406;28;20057;-71
2023/06/08 00:44:59;;;;;;;35.03;13.38;;;;;;;;;;5012651;28;20236;-71
2023/06/08 00:47:25;;;;;;;37.17;13.07;;;;;;;;;;5013073;28;20034;-71
2023/06/08 00:49:51;;;;;;;32.75;12.98;;;;;;;;;;5012324;28;20113;-70
2023/06/08 00:52:20;;;;;;;26.20;12.40;;;;;;;;;;5012206;28;20030;-71
2023/06/08 00:54:48;;;;;;;35.72;14.10;;;;;;;;;;5012433;28;20419;-70
2023/06/08 00:57:15;;;;;;;39.90;14.10;;;;;;;;;;5012485;28;20017;-70
2023/06/08 00:59:42;;;;;;;38.33;14.45;;;;;;;;;;5012321;28;20028;-70
2023/06/08 01:02:08;;;;;;;27.02;12.73;;;;;;;;;;5012226;28;20034;-70
2023/06/08 01:04:35;;;;;;;27.52;12.60;;;;;;;;;;5012228;28;20399;-70
2023/06/08 01:07:14;;;;;;;33.80;14.55;;;;;;;;;;5012414;28;20038;-70
2023/06/08 01:09:57;;;;;;;35.28;14.70;;;;;;;;;;5011917;28;20029;-71
2023/06/08 01:12:29;;;;;;;35.47;15.23;;;;;;;;;;5014016;28;20030;-71
2023/06/08 01:15:07;;;;;;;40.15;15.20;;;;;;;;;;5015671;28;20105;-71
2023/06/08 01:17:45;;;;;;;38.28;14.73;;;;;;;;;;5014654;28;20081;-71
2023/06/08 01:20:24;;;;;;;31.83;14.93;;;;;;;;;;5013551;28;20025;-72
2023/06/08 01:22:53;;;;;;;42.03;15.82;;;;;;;;;;5015965;28;20056;-70
2023/06/08 01:25:20;;;;;;;34.88;14.93;;;;;;;;;;5014758;28;20028;-72
2023/06/08 01:27:48;;;;;;;34.28;15.95;;;;;;;;;;5016043;28;20030;-70
2023/06/08 01:30:14;;;;;;;30.80;15.02;;;;;;;;;;5019439;28;20022;-72
2023/06/08 01:32:40;;;;;;;39.10;16.02;;;;;;;;;;5017500;28;20022;-71
2023/06/08 01:35:06;;;;;;;36.28;15.90;;;;;;;;;;5011110;28;20148;-71
2023/06/08 01:37:39;;;;;;;37.10;16.05;;;;;;;;;;5011822;28;20368;-73
2023/06/08 01:40:09;;;;;;;34.85;16.27;;;;;;;;;;5011682;28;20075;-72
2023/06/08 01:42:35;;;;;;;34.47;16.27;;;;;;;;;;5011735;28;20481;-71
2023/06/08 01:45:11;;;;;;;34.33;16.33;;;;;;;;;;5012570;28;20559;-72
2023/06/08 01:47:39;;;;;;;31.65;16.02;;;;;;;;;;5013152;28;20033;-71
2023/06/08 01:50:06;;;;;;;39.80;17.80;;;;;;;;;;5011333;28;20040;-72
2023/06/08 01:52:32;;;;;;;32.45;16.45;;;;;;;;;;5012274;28;20089;-72
2023/06/08 01:54:58;;;;;;;32.53;16.02;;;;;;;;;;5006278;28;20460;-72
2023/06/08 01:57:24;;;;;;;31.33;16.17;;;;;;;;;;5011885;28;20084;-72
2023/06/08 01:59:50;;;;;;;32.90;16.77;;;;;;;;;;5010526;28;20050;-71
2023/06/08 02:02:16;;;;;;;33.88;18.92;;;;;;;;;;5011212;28;20476;-71
2023/06/08 02:04:43;;;;;;;39.80;18.17;;;;;;;;;;5012047;28;20053;-71
2023/06/08 02:07:09;;;;;;;42.83;18.70;;;;;;;;;;5011591;28;20251;-71
2023/06/08 02:09:35;;;;;;;39.92;18.40;;;;;;;;;;5010764;28;20519;-71
2023/06/08 02:12:06;;;;;;;34.03;17.98;;;;;;;;;;5011360;28;20034;-72
2023/06/08 02:14:32;;;;;;;38.00;18.08;;;;;;;;;;5010431;28;20369;-72
2023/06/08 02:17:00;;;;;;;37.50;18.67;;;;;;;;;;5011198;28;20105;-72
2023/06/08 02:19:26;;;;;;;46.95;20.77;;;;;;;;;;5009758;28;20434;-72
2023/06/08 02:21:52;;;;;;;43.55;19.95;;;;;;;;;;5009728;28;20121;-71
2023/06/08 02:24:18;;;;;;;47.67;21.02;;;;;;;;;;5010302;28;20095;-71
2023/06/08 02:26:44;;;;;;;51.88;23.90;;;;;;;;;;5010335;28;20398;-72
2023/06/08 02:29:10;;;;;;;38.40;21.52;;;;;;;;;;5010229;28;20026;-71
2023/06/08 02:31:36;;;;;;;48.08;23.98;;;;;;;;;;5010129;28;20029;-73
2023/06/08 02:34:02;;;;;;;48.40;25.30;;;;;;;;;;5009109;28;20491;-73
2023/06/08 02:36:31;;;;;;;41.10;24.85;;;;;;;;;;5010298;28;20122;-72
2023/06/08 02:38:57;;;;;;;40.83;23.98;;;;;;;;;;5010368;28;20021;-71
2023/06/08 02:41:25;;;;;;;49.13;25.67;;;;;;;;;;5010335;28;20030;-73
2023/06/08 02:43:51;;;;;;;41.28;26.20;;;;;;;;;;5009690;28;20033;-71
2023/06/08 02:46:17;;;;;;;48.63;27.05;;;;;;;;;;5010363;28;20033;-71
2023/06/08 02:48:43;;;;;;;53.47;29.55;;;;;;;;;;5013879;28;20104;-70
2023/06/08 02:51:09;;;;;;;52.15;28.30;;;;;;;;;;5013494;28;20042;-70
2023/06/08 02:53:35;;;;;;;48.78;28.60;;;;;;;;;;5013327;28;20097;-70
2023/06/08 02:56:02;;;;;;;44.97;26.95;;;;;;;;;;5014229;28;20021;-70
2023/06/08 02:58:30;;;;;;;51.53;26.85;;;;;;;;;;5013606;28;20332;-71
2023/06/08 03:00:59;;;;;;;44.03;27.08;;;;;;;;;;5012697;28;20044;-71
2023/06/08 03:03:27;;;;;;;47.05;26.90;;;;;;;;;;5013622;28;20050;-71
2023/06/08 03:05:59;;;;;;;49.75;28.67;;;;;;;;;;5012720;28;20117;-71
2023/06/08 03:08:26;;;;;;;49.17;29.25;;;;;;;;;;5013482;28;20029;-71
2023/06/08 03:10:52;;;;;;;48.42;28.20;;;;;;;;;;5013390;28;20096;-70
2023/06/08 03:13:18;;;;;;;55.15;30.02;;;;;;;;;;5012444;28;20022;-71
2023/06/08 03:15:45;;;;;;;50.22;29.38;;;;;;;;;;5013265;28;20419;-72
2023/06/08 03:18:11;;;;;;;62.65;30.15;;;;;;;;;;5013174;28;20442;-72
2023/06/08 03:20:37;;;;;;;55.45;29.17;;;;;;;;;;5013575;28;20018;-72
2023/06/08 03:23:04;;;;;;;59.78;30.30;;;;;;;;;;5013028;28;20030;-71
2023/06/08 03:25:31;;;;;;;56.92;30.25;;;;;;;;;;5013177;28;20021;-72
2023/06/08 03:27:57;;;;;;;56.75;31.60;;;;;;;;;;5013867;28;20034;-72
2023/06/08 03:30:23;;;;;;;71.70;39.15;;;;;;;;;;5013726;28;20086;-71
2023/06/08 03:32:49;;;;;;;54.08;31.20;;;;;;;;;;5012988;28;20025;-71
2023/06/08 03:35:16;;;;;;;67.43;31.05;;;;;;;;;;5013804;28;20345;-71
2023/06/08 03:37:42;;;;;;;55.55;28.65;;;;;;;;;;5013554;28;20022;-70
2023/06/08 03:40:09;;;;;;;57.22;28.48;;;;;;;;;;5013683;28;20033;-71
2023/06/08 03:42:35;;;;;;;54.35;28.02;;;;;;;;;;5013866;28;20026;-73
2023/06/08 03:45:01;;;;;;;53.55;28.15;;;;;;;;;;5016453;28;20029;-71
2023/06/08 03:47:27;;;;;;;65.15;30.92;;;;;;;;;;5016490;28;20101;-71
2023/06/08 03:49:53;;;;;;;60.58;27.58;;;;;;;;;;5016097;28;20056;-71
2023/06/08 03:52:19;;;;;;;59.25;29.20;;;;;;;;;;5017841;28;20453;-72
2023/06/08 03:54:45;;;;;;;56.17;27.48;;;;;;;;;;5015816;28;20486;-71
2023/06/08 03:57:11;;;;;;;61.97;28.20;;;;;;;;;;5014988;28;20380;-71
2023/06/08 03:59:38;;;;;;;54.53;27.15;;;;;;;;;;5013315;28;20042;-71
2023/06/08 04:02:04;;;;;;;68.47;28.63;;;;;;;;;;5013275;28;20338;-70
2023/06/08 04:04:30;;;;;;;56.95;25.95;;;;;;;;;;5013812;28;20026;-72
2023/06/08 04:07:00;;;;;;;56.13;26.40;;;;;;;;;;5013527;28;20026;-70
2023/06/08 04:09:29;;;;;;;56.17;26.98;;;;;;;;;;5013403;28;20091;-71
2023/06/08 04:11:56;;;;;;;58.95;26.08;;;;;;;;;;5013201;28;20026;-72
2023/06/08 04:14:22;;;;;;;51.90;24.35;;;;;;;;;;5013948;28;20033;-72
2023/06/08 04:16:48;;;;;;;45.13;22.23;;;;;;;;;;5013287;28;20021;-71
2023/06/08 04:19:14;;;;;;;42.10;22.10;;;;;;;;;;5013344;28;20026;-71
2023/06/08 04:21:42;;;;;;;40.70;20.58;;;;;;;;;;5013358;28;20029;-71
2023/06/08 04:24:08;;;;;;;45.03;22.15;;;;;;;;;;5013180;28;20041;-71
2023/06/08 04:26:34;;;;;;;45.22;21.25;;;;;;;;;;5013721;28;20069;-72
2023/06/08 04:29:03;;;;;;;44.47;22.88;;;;;;;;;;5013312;28;20061;-71
2023/06/08 04:31:30;;;;;;;45.45;22.27;;;;;;;;;;5013035;28;20029;-72
2023/06/08 04:33:56;;;;;;;36.55;21.02;;;;;;;;;;5013473;28;20030;-71
2023/06/08 04:36:22;;;;;;;44.63;21.52;;;;;;;;;;5011153;28;20029;-72
2023/06/08 04:38:48;;;;;;;42.97;21.98;;;;;;;;;;5012426;28;20075;-72
2023/06/08 04:41:14;;;;;;;44.28;23.33;;;;;;;;;;5012981;28;20025;-73
2023/06/08 04:43:44;;;;;;;52.25;24.13;;;;;;;;;;5011554;28;20038;-73
2023/06/08 04:46:12;;;;;;;47.67;24.02;;;;;;;;;;5010085;28;20022;-74
2023/06/08 04:48:38;;;;;;;57.72;25.20;;;;;;;;;;5013323;28;20109;-74
2023/06/08 04:51:09;;;;;;;51.90;24.05;;;;;;;;;;5005630;28;20500;-74
2023/06/08 04:53:37;;;;;;;51.35;23.63;;;;;;;;;;5012372;28;20037;-74
2023/06/08 04:56:04;;;;;;;39.15;22.65;;;;;;;;;;5009467;28;20802;-75
2023/06/08 04:58:31;;;;;;;41.10;22.25;;;;;;;;;;5012773;28;20022;-76
2023/06/08 05:00:57;;;;;;;45.72;22.55;;;;;;;;;;5013743;28;20025;-73
2023/06/08 05:03:24;;;;;;;37.85;21.45;;;;;;;;;;5013668;28;20419;-72
2023/06/08 05:05:50;;;;;;;48.40;22.75;;;;;;;;;;5014083;28;20340;-72
2023/06/08 05:08:16;;;;;;;42.53;22.95;;;;;;;;;;5016488;28;20022;-75
2023/06/08 05:10:42;;;;;;;51.10;29.63;;;;;;;;;;5015527;28;20029;-73
2023/06/08 05:13:08;;;;;;;47.28;26.17;;;;;;;;;;5018071;28;20026;-71
2023/06/08 05:15:34;;;;;;;50.28;26.60;;;;;;;;;;5015699;28;20053;-71
2023/06/08 05:18:00;;;;;;;52.00;27.75;;;;;;;;;;5016714;28;20152;-71
2023/06/08 05:20:29;;;;;;;48.97;26.70;;;;;;;;;;5015093;28;20061;-71
2023/06/08 05:22:55;;;;;;;54.33;30.52;;;;;;;;;;5013903;28;20047;-71
2023/06/08 05:25:22;;;;;;;60.42;31.38;;;;;;;;;;5012541;28;20361;-70
2023/06/08 05:27:47;;;;;;;60.67;29.00;;;;;;;;;;5011730;28;20503;-76
2023/06/08 05:30:14;;;;;;;52.30;27.60;;;;;;;;;;5011829;28;20030;-72
2023/06/08 05:32:40;;;;;;;60.42;28.63;;;;;;;;;;5009110;28;20113;-72
2023/06/08 05:35:06;;;;;;;61.70;29.90;;;;;;;;;;5009646;28;20109;-71
2023/06/08 05:37:32;;;;;;;64.80;32.50;;;;;;;;;;5011726;28;20038;-73
2023/06/08 05:39:59;;;;;;;62.40;30.00;;;;;;;;;;5012208;28;20026;-72
2023/06/08 05:42:25;;;;;;;52.53;29.08;;;;;;;;;;5008317;28;20053;-74
2023/06/08 05:44:51;;;;;;;57.50;30.92;;;;;;;;;;5011374;28;20080;-71
2023/06/08 05:47:17;;;;;;;61.10;30.67;;;;;;;;;;5011505;28;20033;-71
2023/06/08 05:49:43;;;;;;;64.50;33.55;;;;;;;;;;5011876;28;20048;-75
2023/06/08 05:52:09;;;;;;;61.13;34.88;;;;;;;;;;5007082;28;20034;-72
2023/06/08 05:54:35;;;;;;;60.80;33.95;;;;;;;;;;5011733;28;20029;-72
2023/06/08 05:57:01;;;;;;;79.35;36.70;;;;;;;;;;5011539;28;20491;-75
2023/06/08 05:59:27;;;;;;;51.88;32.67;;;;;;;;;;5010459;28;20030;-73
2023/06/08 06:01:54;;;;;;;54.10;33.58;;;;;;;;;;5010799;28;20026;-71
2023/06/08 06:04:20;;;;;;;52.85;32.40;;;;;;;;;;5011422;28;20040;-73
2023/06/08 06:06:46;;;;;;;54.85;32.55;;;;;;;;;;5009126;28;20040;-71
2023/06/08 06:09:12;;;;;;;55.55;32.45;;;;;;;;;;5010884;28;20113;-71
2023/06/08 06:11:38;;;;;;;60.30;31.23;;;;;;;;;;5010780;28;20022;-71
2023/06/08 06:14:04;;;;;;;64.82;30.52;;;;;;;;;;5011232;28;20022;-75
2023/06/08 06:16:30;;;;;;;52.70;30.13;;;;;;;;;;5011811;28;20028;-74
2023/06/08 06:18:57;;;;;;;59.15;30.77;;;;;;;;;;5011459;28;20026;-74
2023/06/08 06:21:23;;;;;;;70.82;30.38;;;;;;;;;;5012190;28;20075;-70
2023/06/08 06:23:49;;;;;;;62.15;30.73;;;;;;;;;;5015636;28;20149;-70
2023/06/08 06:26:15;;;;;;;63.17;33.35;;;;;;;;;;5016603;28;20041;-71
2023/06/08 06:28:41;;;;;;;65.35;33.28;;;;;;;;;;5015512;28;20525;-71
2023/06/08 06:31:07;;;;;;;51.20;30.65;;;;;;;;;;5014652;28;20133;-70
2023/06/08 06:33:33;;;;;;;56.88;30.23;;;;;;;;;;5014637;28;20026;-71
2023/06/08 06:35:59;;;;;;;53.42;30.00;;;;;;;;;;5015071;28;20029;-70
2023/06/08 06:38:26;;;;;;;51.17;30.92;;;;;;;;;;5015667;28;20029;-73
2023/06/08 06:40:52;;;;;;;61.13;32.33;;;;;;;;;;5016554;28;20033;-73
2023/06/08 06:43:22;;;;;;;55.20;34.65;;;;;;;;;;5014490;28;20018;-74
2023/06/08 06:45:52;;;;;;;62.30;32.75;;;;;;;;;;5015970;28;20030;-71
2023/06/08 06:48:19;;;;;;;51.88;31.50;;;;;;;;;;5014794;28;20507;-70
2023/06/08 06:50:45;;;;;;;52.35;31.50;;;;;;;;;;5014490;28;20470;-73
2023/06/08 06:53:11;;;;;;;59.60;30.85;;;;;;;;;;5012850;28;20072;-75
2023/06/08 06:55:38;;;;;;;45.45;28.83;;;;;;;;;;5013719;28;20026;-70
2023/06/08 06:58:04;;;;;;;54.22;32.67;;;;;;;;;;5013245;28;20479;-71
2023/06/08 07:00:37;;;;;;;59.92;33.42;;;;;;;;;;5014194;28;20014;-75
2023/06/08 07:03:06;;;;;;;52.20;32.42;;;;;;;;;;5013459;28;20025;-73
2023/06/08 07:05:32;;;;;;;61.35;35.38;;;;;;;;;;5014112;28;20359;-72
2023/06/08 07:07:58;;;;;;;65.00;36.70;;;;;;;;;;5014276;28;20108;-72
2023/06/08 07:10:24;;;;;;;65.13;37.45;;;;;;;;;;5016179;28;20042;-73
2023/06/08 07:12:50;;;;;;;67.82;36.55;;;;;;;;;;5014354;28;20033;-71
2023/06/08 07:15:17;;;;;;;63.63;35.58;;;;;;;;;;5013979;28;20427;-72
2023/06/08 07:17:44;;;;;;;60.22;35.28;;;;;;;;;;5015010;28;20103;-72
2023/06/08 07:20:10;;;;;;;64.15;35.80;;;;;;;;;;5013795;28;20018;-72
2023/06/08 07:22:36;;;;;;;68.07;37.50;;;;;;;;;;5012523;28;20034;-72
2023/06/08 07:25:04;;;;;;;67.70;36.97;;;;;;;;;;5012989;28;20033;-72
2023/06/08 07:27:30;;;;;;;73.47;40.47;;;;;;;;;;5010521;28;20033;-73
2023/06/08 07:29:56;;;;;;;65.55;37.30;;;;;;;;;;5012620;28;20033;-73
2023/06/08 07:32:22;;;;;;;62.65;36.28;;;;;;;;;;5023822;28;20030;-73
2023/06/08 07:34:48;;;;;;;62.03;36.17;;;;;;;;;;5032016;28;20083;-72
2023/06/08 07:37:14;;;;;;;55.97;34.13;;;;;;;;;;5032869;28;20025;-72
2023/06/08 07:39:40;;;;;;;64.15;36.78;;;;;;;;;;5032266;28;20029;-73
2023/06/08 07:42:06;;;;;;;67.00;38.33;;;;;;;;;;5031670;28;20029;-72
2023/06/08 07:44:32;;;;;;;58.33;35.38;;;;;;;;;;5032510;28;20183;-72
2023/06/08 07:47:00;;;;;;;63.28;37.60;;;;;;;;;;5032988;28;20514;-72
2023/06/08 07:49:28;;;;;;;62.05;37.20;;;;;;;;;;5033828;28;20076;-72
2023/06/08 07:51:54;;;;;;;56.67;33.53;;;;;;;;;;5033729;28;20022;-73
2023/06/08 07:54:21;;;;;;;61.55;34.22;;;;;;;;;;5033252;28;20379;-72
2023/06/08 07:56:47;;;;;;;55.50;33.78;;;;;;;;;;5033408;28;20021;-72
2023/06/08 07:59:13;;;;;;;59.25;35.45;;;;;;;;;;5035751;28;20038;-72
2023/06/08 08:01:39;;;;;;;54.40;32.08;;;;;;;;;;5035069;28;20025;-72
2023/06/08 08:04:05;;;;;;;63.30;35.15;;;;;;;;;;5034769;28;20505;-71
2023/06/08 08:06:31;;;;;;;58.35;31.77;;;;;;;;;;5032852;28;20060;-71
2023/06/08 08:08:57;;;;;;;53.00;32.97;;;;;;;;;;5034688;28;20030;-73
2023/06/08 08:11:23;;;;;;;51.80;32.45;;;;;;;;;;5033927;28;20037;-72
2023/06/08 08:13:49;;;;;;;55.08;31.75;;;;;;;;;;5035588;28;20114;-71
2023/06/08 08:16:15;;;;;;;54.42;32.53;;;;;;;;;;5038015;28;20017;-70
2023/06/08 08:18:41;;;;;;;61.47;30.15;;;;;;;;;;5037632;28;20028;-71
2023/06/08 08:21:07;;;;;;;50.88;28.52;;;;;;;;;;5038251;28;20134;-72
2023/06/08 08:23:33;;;;;;;56.13;29.35;;;;;;;;;;5037190;28;20025;-74
2023/06/08 08:25:59;;;;;;;51.22;30.48;;;;;;;;;;5037631;28;20029;-72
2023/06/08 08:28:25;;;;;;;60.60;32.17;;;;;;;;;;5037859;28;20033;-72
2023/06/08 08:30:51;;;;;;;53.60;27.92;;;;;;;;;;5042206;28;20025;-72
2023/06/08 08:33:17;;;;;;;46.13;26.98;;;;;;;;;;5039910;28;20056;-73
2023/06/08 08:35:43;;;;;;;55.50;28.35;;;;;;;;;;5041121;28;20025;-73
2023/06/08 08:38:09;;;;;;;53.10;28.58;;;;;;;;;;5039781;28;20026;-77
2023/06/08 08:40:35;;;;;;;42.08;25.13;;;;;;;;;;5032987;28;20045;-73
2023/06/08 08:43:09;;;;;;;46.20;26.38;;;;;;;;;;5032243;28;20025;-73
2023/06/08 08:45:36;;;;;;;48.23;27.10;;;;;;;;;;5032434;28;20048;-73
2023/06/08 08:48:02;;;;;;;49.92;26.63;;;;;;;;;;5032606;28;20025;-73
2023/06/08 08:50:29;;;;;;;47.63;26.05;;;;;;;;;;5032466;28;20040;-72
2023/06/08 08:52:57;;;;;;;44.90;25.60;;;;;;;;;;5031953;28;20048;-72
2023/06/08 08:55:27;;;;;;;39.97;23.55;;;;;;;;;;5032523;28;20108;-73
2023/06/08 08:57:59;;;;;;;43.65;25.70;;;;;;;;;;5033010;28;20096;-73
2023/06/08 09:00:26;;;;;;;43.30;26.40;;;;;;;;;;5032156;28;20021;-74
2023/06/08 09:02:52;;;;;;;44.55;22.15;;;;;;;;;;5031841;28;20026;-74
2023/06/08 09:05:18;;;;;;;46.30;24.50;;;;;;;;;;5032023;28;20479;-73
2023/06/08 09:07:44;;;;;;;35.67;20.90;;;;;;;;;;5032181;28;20044;-73
2023/06/08 09:10:14;;;;;;;39.97;20.95;;;;;;;;;;5031514;28;20112;-72
2023/06/08 09:12:43;;;;;;;36.83;20.92;;;;;;;;;;5032351;28;20029;-75
2023/06/08 09:15:11;;;;;;;32.20;18.50;;;;;;;;;;5032645;28;20028;-75
2023/06/08 09:17:37;;;;;;;42.25;19.65;;;;;;;;;;5032717;28;20017;-75
2023/06/08 09:20:08;;;;;;;32.60;17.42;;;;;;;;;;5015005;28;20032;-76
2023/06/08 09:25:19;;;;;;;;;;;;;;;;;;5032272;28;20117;-71
2023/06/08 09:27:47;;;;;;;28.52;15.02;;;;;;;;;;5032397;28;19912;-70
2023/06/08 09:30:23;;;;;;;42.17;17.08;;;;;;;;;;5035818;28;20037;-72
2023/06/08 09:32:49;;;;;;;33.80;15.00;;;;;;;;;;5032593;28;20050;-72
2023/06/08 09:35:22;;;;;;;32.28;14.77;;;;;;;;;;5032469;28;20017;-72
2023/06/08 09:37:49;;;;;;;26.75;13.32;;;;;;;;;;5032353;28;20113;-71
2023/06/08 09:40:19;;;;;;;28.05;14.05;;;;;;;;;;5032352;28;20017;-73
2023/06/08 09:42:50;;;;;;;36.35;13.15;;;;;;;;;;5031967;28;20342;-78
2023/06/08 09:45:17;;;;;;;25.30;11.68;;;;;;;;;;5032299;28;20163;-77
2023/06/08 09:47:43;;;;;;;31.25;13.02;;;;;;;;;;5032366;28;20382;-77
2023/06/08 09:50:10;;;;;;;26.58;11.45;;;;;;;;;;5032145;28;20048;-73
2023/06/08 09:52:37;;;;;;;23.83;10.70;;;;;;;;;;5030852;28;20017;-72
2023/06/08 09:55:03;;;;;;;24.67;11.05;;;;;;;;;;5032406;28;20029;-74
2023/06/08 09:57:35;;;;;;;26.50;9.82;;;;;;;;;;5033666;28;20108;-72
2023/06/08 10:00:09;;;;;;;22.77;8.18;;;;;;;;;;5035519;28;20397;-72
2023/06/08 10:02:39;;;;;;;25.03;8.93;;;;;;;;;;5035272;28;20375;-73
2023/06/08 10:05:09;;;;;;;21.65;7.43;;;;;;;;;;5035349;28;20033;-73
2023/06/08 10:07:36;;;;;;;25.02;8.32;;;;;;;;;;5034200;28;20034;-72
2023/06/08 10:10:13;;;;;;;26.75;8.05;;;;;;;;;;5035438;28;20128;-74
2023/06/08 10:12:39;;;;;;;25.75;7.32;;;;;;;;;;5035236;28;20025;-72
2023/06/08 10:15:06;;;;;;;20.23;6.40;;;;;;;;;;5035433;28;20018;-73
2023/06/08 10:17:33;;;;;;;17.60;6.63;;;;;;;;;;5035706;28;20030;-70
2023/06/08 10:19:59;;;;;;;19.85;7.03;;;;;;;;;;5034903;28;20033;-72
2023/06/08 10:22:26;;;;;;;17.85;6.40;;;;;;;;;;5035023;28;20029;-73
2023/06/08 10:24:52;;;;;;;17.98;6.20;;;;;;;;;;5035533;28;20029;-72
2023/06/08 10:27:24;;;;;;;20.02;7.15;;;;;;;;;;5036494;28;20026;-72
2023/06/08 10:30:01;;;;;;;23.70;6.88;;;;;;;;;;5035954;28;20479;-72
2023/06/08 10:32:38;;;;;;;15.85;6.53;;;;;;;;;;5035319;28;20120;-72
2023/06/08 10:35:05;;;;;;;18.85;5.95;;;;;;;;;;5035148;28;20026;-72
2023/06/08 10:37:32;;;;;;;22.55;6.18;;;;;;;;;;5034945;28;20451;-73
2023/06/08 10:39:59;;;;;;;20.00;6.18;;;;;;;;;;5034795;28;20467;-72
2023/06/08 10:48:39;;;;;;;22.55;5.78;;;;;;;;;;5035241;28;20121;-73
2023/06/08 10:51:09;;;;;;;20.23;6.07;;;;;;;;;;5034763;28;20430;-73
2023/06/08 10:53:55;;;;;;;16.80;7.03;;;;;;;;;;5034821;28;20495;-73
2023/06/08 10:56:25;;;;;;;14.75;5.47;;;;;;;;;;5035296;28;20017;-71
2023/06/08 10:58:52;;;;;;;18.17;5.50;;;;;;;;;;5035356;28;20025;-73
2023/06/08 11:01:20;;;;;;;17.30;4.93;;;;;;;;;;5035291;28;20033;-72
2023/06/08 11:03:50;;;;;;;18.40;5.35;;;;;;;;;;5034108;28;20030;-71
2023/06/08 11:06:16;;;;;;;21.88;7.32;;;;;;;;;;5034601;28;20076;-72
2023/06/08 11:08:42;;;;;;;15.63;5.13;;;;;;;;;;5032903;28;20030;-72
2023/06/08 11:11:10;;;;;;;16.52;6.00;;;;;;;;;;5034141;28;20483;-73
2023/06/08 11:13:36;;;;;;;14.80;5.13;;;;;;;;;;5033735;28;20026;-73
2023/06/08 11:16:02;;;;;;;19.67;6.30;;;;;;;;;;5035419;28;20028;-72
2023/06/08 11:18:30;;;;;;;15.35;5.55;;;;;;;;;;5035543;28;20487;-74
2023/06/08 11:20:59;;;;;;;17.05;5.78;;;;;;;;;;5035574;28;20029;-73
2023/06/08 11:23:25;;;;;;;21.35;5.63;;;;;;;;;;5035025;28;20025;-71
2023/06/08 11:25:51;;;;;;;18.73;5.28;;;;;;;;;;5034395;28;20048;-75
2023/06/08 11:28:18;;;;;;;11.43;4.78;;;;;;;;;;5034436;28;20025;-72
2023/06/08 11:30:44;;;;;;;20.73;5.50;;;;;;;;;;5034936;28;20048;-71
2023/06/08 11:33:17;;;;;;;18.48;5.88;;;;;;;;;;5034735;28;20029;-72
2023/06/08 11:35:43;;;;;;;16.88;5.85;;;;;;;;;;5034226;28;20022;-73
2023/06/08 11:38:10;;;;;;;15.10;5.00;;;;;;;;;;5034430;28;20029;-72
2023/06/08 11:40:41;;;;;;;13.73;5.30;;;;;;;;;;5034910;28;20151;-71
2023/06/08 11:43:07;;;;;;;18.23;4.93;;;;;;;;;;5034474;28;20715;-72
2023/06/08 11:45:34;;;;;;;13.10;5.63;;;;;;;;;;5032806;28;20034;-73
2023/06/08 11:48:00;;;;;;;16.10;6.05;;;;;;;;;;5034197;28;20036;-72
2023/06/08 11:50:26;;;;;;;16.02;5.28;;;;;;;;;;5034262;28;20103;-73
2023/06/08 11:52:52;;;;;;;9.85;4.93;;;;;;;;;;5037296;28;20069;-72
2023/06/08 11:55:25;;;;;;;14.80;5.30;;;;;;;;;;5034281;28;20053;-72
2023/06/08 11:57:59;;;;;;;12.63;5.13;;;;;;;;;;5033711;28;20407;-72
2023/06/08 12:00:31;;;;;;;16.60;5.38;;;;;;;;;;5034089;28;20428;-73
2023/06/08 12:02:57;;;;;;;16.55;4.70;;;;;;;;;;5033336;28;20029;-71
2023/06/08 12:05:28;;;;;;;17.20;5.28;;;;;;;;;;5033281;28;20471;-72
2023/06/08 12:08:01;;;;;;;13.05;4.88;;;;;;;;;;5032870;28;20022;-72
2023/06/08 12:10:37;;;;;;;13.77;5.28;;;;;;;;;;5031579;28;20039;-73
2023/06/08 12:13:06;;;;;;;11.45;5.30;;;;;;;;;;5033430;28;20080;-72
2023/06/08 12:15:37;;;;;;;17.65;6.93;;;;;;;;;;5033451;28;20021;-72
2023/06/08 12:18:03;;;;;;;9.68;5.28;;;;;;;;;;5033278;28;20108;-72
2023/06/08 12:20:36;;;;;;;11.70;4.80;;;;;;;;;;5031079;28;20022;-72
2023/06/08 12:23:02;;;;;;;14.05;5.78;;;;;;;;;;5032703;28;20021;-73
2023/06/08 12:25:29;;;;;;;13.98;5.38;;;;;;;;;;5033499;28;20108;-74
2023/06/08 12:27:55;;;;;;;14.45;5.90;;;;;;;;;;5033565;28;20356;-72
2023/06/08 12:30:24;;;;;;;16.67;4.85;;;;;;;;;;5034418;28;20071;-72
2023/06/08 12:32:51;;;;;;;14.30;5.75;;;;;;;;;;5032576;28;20568;-73
2023/06/08 12:35:17;;;;;;;11.35;5.47;;;;;;;;;;5033663;28;20029;-73
2023/06/08 12:37:48;;;;;;;14.13;5.57;;;;;;;;;;5031780;28;20026;-73
2023/06/08 12:40:14;;;;;;;12.23;5.47;;;;;;;;;;5033488;28;20459;-70
2023/06/08 12:42:42;;;;;;;17.02;6.03;;;;;;;;;;5032303;28;20162;-72
2023/06/08 12:45:08;;;;;;;13.40;6.53;;;;;;;;;;5032168;28;20053;-73
2023/06/08 12:47:34;;;;;;;23.63;5.85;;;;;;;;;;5032831;28;20036;-72
2023/06/08 12:50:00;;;;;;;13.55;5.82;;;;;;;;;;5034478;28;20032;-72
2023/06/08 12:52:26;;;;;;;13.30;6.82;;;;;;;;;;5034621;28;20037;-72
2023/06/08 12:54:53;;;;;;;13.90;6.20;;;;;;;;;;5033257;28;20038;-72
2023/06/08 12:57:19;;;;;;;12.90;5.90;;;;;;;;;;5034272;28;20487;-72
2023/06/08 12:59:45;;;;;;;8.82;5.13;;;;;;;;;;5030905;28;20121;-73
2023/06/08 13:02:11;;;;;;;10.75;5.70;;;;;;;;;;5032226;28;20028;-73
2023/06/08 13:04:37;;;;;;;19.63;6.00;;;;;;;;;;5032211;28;20025;-72
2023/06/08 13:07:03;;;;;;;13.65;6.30;;;;;;;;;;5032312;28;20036;-72
2023/06/08 13:09:29;;;;;;;11.00;5.93;;;;;;;;;;5032516;28;20061;-73
2023/06/08 13:11:55;;;;;;;10.80;5.70;;;;;;;;;;5032079;28;20124;-72
2023/06/08 13:14:21;;;;;;;11.98;5.43;;;;;;;;;;5032936;28;20025;-72
2023/06/08 13:16:47;;;;;;;16.13;5.75;;;;;;;;;;5033067;28;20067;-72
2023/06/08 13:19:13;;;;;;;20.45;6.05;;;;;;;;;;5033649;28;20403;-72
2023/06/08 13:21:39;;;;;;;12.63;5.57;;;;;;;;;;5031629;28;20029;-72
2023/06/08 13:24:06;;;;;;;9.95;5.70;;;;;;;;;;5031677;28;20033;-73
2023/06/08 13:26:33;;;;;;;13.23;5.00;;;;;;;;;;5031600;28;20036;-73
2023/06/08 13:28:59;;;;;;;11.40;5.35;;;;;;;;;;5031826;28;20027;-73
2023/06/08 13:31:26;;;;;;;9.07;5.68;;;;;;;;;;5030872;28;20026;-73
2023/06/08 13:33:52;;;;;;;9.90;5.05;;;;;;;;;;5031727;28;20692;-73
2023/06/08 13:36:18;;;;;;;14.15;5.30;;;;;;;;;;5031991;28;20049;-75
2023/06/08 13:38:44;;;;;;;11.05;4.90;;;;;;;;;;5032742;28;20021;-73
2023/06/08 13:41:11;;;;;;;14.88;5.55;;;;;;;;;;5031976;28;20025;-71
2023/06/08 13:43:37;;;;;;;8.50;4.50;;;;;;;;;;5018309;28;20036;-72
2023/06/08 13:46:04;;;;;;;12.57;5.80;;;;;;;;;;5013981;28;20468;-72
2023/06/08 13:48:30;;;;;;;9.93;5.25;;;;;;;;;;5024806;28;20546;-73
2023/06/08 13:50:56;;;;;;;14.85;5.68;;;;;;;;;;5031534;28;20026;-73
2023/06/08 13:53:22;;;;;;;10.82;4.88;;;;;;;;;;5030569;28;20037;-72
2023/06/08 13:55:48;;;;;;;8.52;4.97;;;;;;;;;;5031587;28;20657;-72
2023/06/08 13:58:15;;;;;;;10.63;4.88;;;;;;;;;;5031109;28;20030;-73
2023/06/08 14:00:41;;;;;;;14.10;5.20;;;;;;;;;;5031881;28;20017;-73
2023/06/08 14:03:07;;;;;;;8.63;4.82;;;;;;;;;;5030405;28;20108;-73
2023/06/08 14:05:33;;;;;;;11.27;5.50;;;;;;;;;;5031724;28;20053;-72
2023/06/08 14:07:59;;;;;;;8.18;4.35;;;;;;;;;;5031478;28;20033;-73
2023/06/08 14:10:25;;;;;;;27.02;5.05;;;;;;;;;;5031127;28;20115;-73
2023/06/08 14:12:52;;;;;;;10.00;4.50;;;;;;;;;;5030335;28;20030;-74
2023/06/08 14:15:18;;;;;;;17.38;5.20;;;;;;;;;;5031601;28;20509;-73
2023/06/08 14:17:45;;;;;;;17.77;5.28;;;;;;;;;;5031586;28;20029;-74
2023/06/08 14:20:11;;;;;;;15.25;5.10;;;;;;;;;;5031552;28;20029;-73
2023/06/08 14:22:37;;;;;;;10.30;4.43;;;;;;;;;;5030822;28;20021;-73
2023/06/08 14:25:03;;;;;;;9.90;4.82;;;;;;;;;;5031674;28;20159;-73
2023/06/08 14:27:29;;;;;;;17.17;4.88;;;;;;;;;;5031524;28;20038;-74
2023/06/08 14:29:55;;;;;;;14.52;6.90;;;;;;;;;;5031640;28;20357;-74